Airfield :
LOGIN :

Register | Disclaimer

   EN    FR    IT 

 










Legend :    VFR   Marginal VFR   IFR   Intensive IFR   Very Intensive IFR
Visi :
Ceiling :
>= 8 km
>= 3000ft
5 to 8 km
1000 to 3000 ft
1500m to 5 km
500 to 1000 ft
800 to 1500m
200 to 500 ft
< 800m
< 200 ft
Symbols :   Thunderstorms  Fog  Heavy snow  Heavy precipitations  Wind > 20 kt
SIGMETs :     Misc.  Thunderstorms  Icing  Turbulence  Mountain Waves  Volcanic Ashes






- Airport Elevation : 191 ft
- IATA code : RNB


ESDF - Ronneby

CURRENT METAR :
  • 172220Z AUTO 24004KT 4400 BR OVC002/// 12/12 Q1011

EXPIRED METARs :
  • 172150Z AUTO 22004KT 190V260 1400 1300// R01/P2000N R19/P2000N BR OVC001/// 12/12 Q1011
  • 172120Z AUTO 20002KT 2700 BR OVC001/// 12/12 Q1011
  • 172050Z AUTO 21003KT 2300 BR OVC001/// 12/12 Q1011
  • 172020Z 20003KT 2000 BR OVC002 12/12 Q1011
  • 171950Z 22003KT 0900 R01/P2000N R19/P2000N FG OVC002 12/12 Q1010

Expired Forecast.



MET'MAP, your aeronautical weather chart ! - Copyright ORBIFLY December 2007 - Disclaimer

ORBIFLY MET'MAP TEAM :

Programming & Development : Alexandra Zaïnal
Concept & Development : Baudouin d'Aumeries
Co-Development & Prog : Marc-Olivier Méhu
Technical & hardware support : Manuel Goepfert

Contact : metmap@orbifly.com




SOURCES & CREDITS :

   NOAA